createdAt,value
2019-05-09T00:01:25.688Z,99034.00
2019-05-09T00:03:55.046Z,99037.84
2019-05-09T00:06:24.473Z,99032.23
2019-05-09T00:08:53.815Z,99035.19
2019-05-09T00:11:24.581Z,99033.92
2019-05-09T00:13:54.100Z,99038.31
2019-05-09T00:16:23.730Z,99036.53
2019-05-09T00:18:54.333Z,99035.31
2019-05-09T00:21:25.335Z,99033.02
2019-05-09T00:23:54.675Z,99031.28
2019-05-09T00:26:24.041Z,99039.97
2019-05-09T00:29:11.417Z,99030.77
2019-05-09T00:31:48.155Z,99034.75
2019-05-09T00:34:19.169Z,99036.38
2019-05-09T00:36:48.542Z,99038.08
2019-05-09T00:39:17.907Z,99042.58
2019-05-09T00:41:47.272Z,99036.49
2019-05-09T00:44:24.355Z,99041.36
2019-05-09T00:46:58.339Z,99037.52
2019-05-09T00:49:28.895Z,99039.38
2019-05-09T00:51:58.256Z,99039.10
2019-05-09T00:54:27.638Z,99039.66
2019-05-09T00:56:57.004Z,99039.73
2019-05-09T00:59:26.395Z,99032.55
2019-05-09T01:01:55.925Z,99046.09
2019-05-09T01:04:25.285Z,99038.43
2019-05-09T01:06:54.651Z,99033.37
2019-05-09T01:09:24.330Z,99035.85
2019-05-09T01:11:53.685Z,99028.81
2019-05-09T01:14:23.603Z,99029.55
2019-05-09T01:16:53.613Z,99033.32
2019-05-09T01:19:23.363Z,99027.91
2019-05-09T01:21:54.318Z,99029.83
2019-05-09T01:24:23.756Z,99028.23
2019-05-09T01:26:54.173Z,99036.19
2019-05-09T01:29:23.666Z,99034.23
2019-05-09T01:31:54.692Z,99035.69
2019-05-09T01:34:25.665Z,99034.48
2019-05-09T01:37:03.654Z,99035.46
2019-05-09T01:39:34.114Z,99038.67
2019-05-09T01:42:03.702Z,99035.28
2019-05-09T01:44:33.612Z,99036.58
2019-05-09T01:47:03.965Z,99035.70
2019-05-09T01:49:34.119Z,99029.70
2019-05-09T01:52:03.887Z,99030.54
2019-05-09T01:54:34.830Z,99034.44
2019-05-09T01:57:04.263Z,99031.84
2019-05-09T01:59:34.206Z,99029.74
2019-05-09T02:02:08.794Z,99028.91
2019-05-09T02:04:35.664Z,99027.75
2019-05-09T02:07:05.078Z,99023.08
2019-05-09T02:09:34.604Z,99026.33
2019-05-09T02:12:04.358Z,99030.44
2019-05-09T02:14:43.541Z,99028.47
2019-05-09T02:17:19.899Z,99032.11
2019-05-09T02:19:49.249Z,99027.84
2019-05-09T02:22:34.466Z,99027.84
2019-05-09T02:25:06.777Z,99022.23
2019-05-09T02:27:36.161Z,99023.17
2019-05-09T02:30:14.768Z,99020.97
2019-05-09T02:32:44.750Z,99016.63
2019-05-09T02:35:13.132Z,99011.83
2019-05-09T02:37:42.497Z,99007.16
2019-05-09T02:40:12.625Z,99006.80
2019-05-09T02:42:42.061Z,99012.00
2019-05-09T02:45:11.656Z,99002.99
2019-05-09T02:47:41.042Z,99003.13
2019-05-09T02:50:11.945Z,99004.66
2019-05-09T02:52:41.275Z,98997.89
2019-05-09T02:55:11.002Z,98999.78
2019-05-09T02:57:41.116Z,99003.84
2019-05-09T03:00:21.150Z,99003.58
2019-05-09T03:02:59.640Z,98997.20
2019-05-09T03:05:29.834Z,98995.63
2019-05-09T03:07:59.398Z,98997.95
2019-05-09T03:10:29.497Z,98992.35
2019-05-09T03:12:59.592Z,98993.25
2019-05-09T03:15:29.521Z,98994.23
2019-05-09T03:17:59.933Z,98985.73
2019-05-09T03:20:40.001Z,98984.96
2019-05-09T03:23:09.490Z,98982.98
2019-05-09T03:25:40.743Z,98989.02
2019-05-09T03:28:14.388Z,98984.83
2019-05-09T03:30:45.386Z,98984.12
2019-05-09T03:33:14.774Z,98979.95
2019-05-09T03:35:44.132Z,98976.66
2019-05-09T03:38:13.477Z,98975.48
2019-05-09T03:40:42.823Z,98974.21
2019-05-09T03:43:12.181Z,98972.51
2019-05-09T03:45:43.197Z,98968.67
2019-05-09T03:48:19.926Z,98970.00
2019-05-09T03:50:49.299Z,98964.52
2019-05-09T03:53:18.653Z,98965.02
2019-05-09T03:55:48.784Z,98971.50
2019-05-09T03:58:21.407Z,98964.61
2019-05-09T04:00:50.769Z,98966.22
2019-05-09T04:03:20.455Z,98964.84
2019-05-09T04:05:59.157Z,98970.38
2019-05-09T04:08:20.828Z,98965.59
2019-05-09T04:10:53.714Z,98970.78
2019-05-09T04:13:24.794Z,98970.81
2019-05-09T04:15:54.175Z,98970.84
2019-05-09T04:18:23.559Z,98976.03
2019-05-09T04:20:52.913Z,98972.57
2019-05-09T04:23:22.262Z,98979.34
2019-05-09T04:25:53.272Z,98977.23
2019-05-09T04:28:22.641Z,98977.66
2019-05-09T04:30:51.998Z,98982.42
2019-05-09T04:36:08.486Z,98980.58
2019-05-09T04:38:39.929Z,98978.38
2019-05-09T04:41:08.867Z,98972.80
2019-05-09T04:43:39.911Z,98978.49
2019-05-09T04:46:12.972Z,98974.27
2019-05-09T04:48:40.305Z,98970.91
2019-05-09T04:51:09.698Z,98975.44
2019-05-09T04:53:39.988Z,98974.67
2019-05-09T04:56:19.936Z,98974.48
2019-05-09T04:58:49.302Z,98982.95
2019-05-09T05:01:23.045Z,98977.59
2019-05-09T05:03:54.052Z,98973.46
2019-05-09T05:06:23.408Z,98975.41
2019-05-09T05:08:52.873Z,98976.12
2019-05-09T05:11:22.230Z,98983.47
2019-05-09T05:13:51.570Z,98984.38
2019-05-09T05:16:20.941Z,98988.23
2019-05-09T05:18:50.316Z,98984.77
2019-05-09T05:21:20.496Z,98991.35
2019-05-09T05:23:57.741Z,98982.82
2019-05-09T05:26:27.714Z,98978.98
2019-05-09T05:28:58.078Z,98984.23
2019-05-09T05:31:28.551Z,98983.58
2019-05-09T05:34:05.397Z,98984.98
2019-05-09T05:36:34.743Z,98992.88
2019-05-09T05:39:07.511Z,98984.55
2019-05-09T05:41:37.856Z,98984.55
2019-05-09T05:44:08.616Z,98977.45
2019-05-09T05:46:48.323Z,98973.64
2019-05-09T05:49:18.660Z,98979.84
2019-05-09T05:51:50.751Z,98982.94
2019-05-09T05:54:21.896Z,98983.27
2019-05-09T05:56:51.267Z,98985.62
2019-05-09T05:59:20.631Z,98983.98
2019-05-09T06:01:49.992Z,98985.86
2019-05-09T06:04:19.327Z,98992.06
2019-05-09T06:06:48.707Z,98992.56
2019-05-09T06:09:18.938Z,98996.55
2019-05-09T06:11:48.823Z,99004.14
2019-05-09T06:14:18.670Z,99001.19
2019-05-09T06:16:48.812Z,98999.74
2019-05-09T06:19:18.400Z,99000.13
2019-05-09T06:21:52.082Z,99000.94
2019-05-09T06:24:19.270Z,98996.16
2019-05-09T06:26:48.617Z,98986.85
2019-05-09T06:29:18.069Z,98982.22
2019-05-09T06:31:48.454Z,98986.05
2019-05-09T06:34:18.715Z,98979.52
2019-05-09T06:36:49.073Z,98975.28
2019-05-09T06:42:05.393Z,98975.03
2019-05-09T06:44:48.222Z,98973.03
2019-05-09T06:47:22.247Z,98969.70
2019-05-09T06:49:53.245Z,98978.19
2019-05-09T06:52:22.607Z,98970.89
2019-05-09T06:54:51.945Z,98975.64
2019-05-09T06:57:21.292Z,98976.15
2019-05-09T06:59:50.685Z,98978.63
2019-05-09T07:02:25.397Z,98965.84
2019-05-09T07:04:58.176Z,98955.83
2019-05-09T07:07:32.168Z,98957.56
2019-05-09T07:10:07.557Z,98960.05
2019-05-09T07:12:37.956Z,98957.17
2019-05-09T07:15:08.873Z,98956.86
2019-05-09T07:17:38.790Z,98963.72
2019-05-09T07:20:08.699Z,98958.84
2019-05-09T07:22:39.772Z,98949.27
2019-05-09T07:25:11.483Z,98944.91
2019-05-09T07:27:42.446Z,98954.75
2019-05-09T07:30:15.080Z,98949.89
2019-05-09T07:33:01.114Z,98955.62
2019-05-09T07:35:30.487Z,98947.97
2019-05-09T07:37:59.830Z,98959.53
2019-05-09T07:40:30.742Z,98955.34
2019-05-09T07:43:00.211Z,98952.02
2019-05-09T07:45:30.539Z,98962.76
2019-05-09T07:47:59.881Z,98950.05
2019-05-09T07:50:29.245Z,98953.28
2019-05-09T07:52:58.591Z,98961.27
2019-05-09T07:55:27.939Z,98959.81
2019-05-09T07:57:59.090Z,98957.35
2019-05-09T08:00:33.574Z,98956.03
2019-05-09T08:03:02.943Z,98949.41
2019-05-09T08:05:32.439Z,98955.09
2019-05-09T08:08:01.804Z,98955.04
2019-05-09T08:10:33.226Z,98956.38
2019-05-09T08:13:02.226Z,98955.88
2019-05-09T08:15:31.589Z,98963.33
2019-05-09T08:18:00.944Z,98953.23
2019-05-09T08:20:30.267Z,98955.36
2019-05-09T08:23:02.122Z,98959.34
2019-05-09T08:25:30.676Z,98958.61
2019-05-09T08:28:00.018Z,98956.87
2019-05-09T08:30:35.920Z,98953.14
2019-05-09T08:33:00.435Z,98964.94
2019-05-09T08:35:30.496Z,98952.99
2019-05-09T08:37:59.828Z,98960.72
2019-05-09T08:40:29.213Z,98962.39
2019-05-09T08:42:59.118Z,98966.88
2019-05-09T08:45:31.573Z,98963.48
2019-05-09T08:47:59.730Z,98956.75
2019-05-09T08:50:38.886Z,98962.09
2019-05-09T08:53:08.378Z,98967.52
2019-05-09T08:55:38.483Z,98974.13
2019-05-09T08:58:08.237Z,98976.89
2019-05-09T09:00:39.000Z,98981.08
2019-05-09T09:03:08.581Z,98979.86
2019-05-09T09:05:38.338Z,98976.95
2019-05-09T09:08:08.473Z,98978.53
2019-05-09T09:10:38.672Z,98977.41
2019-05-09T09:13:09.009Z,98980.80
2019-05-09T09:16:02.417Z,98974.11
2019-05-09T09:18:09.471Z,98979.38
2019-05-09T09:20:38.879Z,98971.95
2019-05-09T09:23:09.114Z,98970.63
2019-05-09T09:25:39.097Z,98974.77
2019-05-09T09:28:09.121Z,98974.77
2019-05-09T09:30:39.153Z,98976.63
2019-05-09T09:33:13.135Z,98967.66
2019-05-09T09:35:39.610Z,98970.22
2019-05-09T09:38:09.534Z,98976.16
2019-05-09T09:40:39.001Z,98971.48
2019-05-09T09:43:09.383Z,98969.14
2019-05-09T09:45:38.897Z,98957.05
2019-05-09T09:48:09.255Z,98966.88
2019-05-09T09:50:38.737Z,98959.02
2019-05-09T09:53:08.933Z,98961.45
2019-05-09T09:55:38.805Z,98964.81
2019-05-09T09:58:08.453Z,98961.15
2019-05-09T10:00:58.698Z,98961.31
2019-05-09T10:03:28.268Z,98954.30
2019-05-09T10:08:44.465Z,98961.22
2019-05-09T10:11:14.793Z,98964.89
2019-05-09T10:13:44.155Z,98962.50
2019-05-09T10:16:33.046Z,98958.41
2019-05-09T10:19:04.040Z,98956.06
2019-05-09T10:21:35.040Z,98953.99
2019-05-09T10:24:04.659Z,98972.84
2019-05-09T10:26:34.302Z,98965.16
2019-05-09T10:29:03.660Z,98965.08
2019-05-09T10:31:33.007Z,98964.68
2019-05-09T10:34:02.360Z,98977.81
2019-05-09T10:36:32.686Z,98970.59
2019-05-09T10:39:02.041Z,98974.03
2019-05-09T10:41:32.502Z,98977.90
2019-05-09T10:44:03.447Z,98982.34
2019-05-09T10:46:52.069Z,98976.02
2019-05-09T10:49:09.143Z,98977.63
2019-05-09T10:51:38.484Z,98987.09
2019-05-09T10:54:08.363Z,98987.13
2019-05-09T10:56:38.506Z,98982.52
2019-05-09T10:59:08.087Z,98996.91
2019-05-09T11:01:38.309Z,98999.55
2019-05-09T11:04:08.776Z,98997.91
2019-05-09T11:06:38.748Z,98994.94
2019-05-09T11:09:09.727Z,98995.06
2019-05-09T11:11:39.268Z,99003.61
2019-05-09T11:14:08.859Z,98996.82
2019-05-09T11:16:45.892Z,99004.80
2019-05-09T11:19:09.303Z,99005.15
2019-05-09T11:21:39.305Z,99011.21
2019-05-09T11:24:08.729Z,99009.12
2019-05-09T11:26:39.942Z,99010.87
2019-05-09T11:29:09.123Z,99015.57
2019-05-09T11:31:38.699Z,99007.88
2019-05-09T11:34:09.069Z,99003.88
2019-05-09T11:36:38.499Z,98998.40
2019-05-09T11:39:10.718Z,98997.70
2019-05-09T11:41:39.927Z,99008.56
2019-05-09T11:44:09.290Z,99005.69
2019-05-09T11:46:38.649Z,99006.58
2019-05-09T11:49:08.624Z,99006.57
2019-05-09T11:51:37.987Z,99017.73
2019-05-09T11:54:09.112Z,99013.77
2019-05-09T11:56:39.570Z,99021.62
2019-05-09T11:59:08.934Z,99010.86
2019-05-09T12:01:39.839Z,99027.00
2019-05-09T12:04:09.639Z,99028.03
2019-05-09T12:06:38.998Z,99028.89
2019-05-09T12:09:09.423Z,99036.62
2019-05-09T12:11:44.006Z,99023.45
2019-05-09T12:14:09.845Z,99030.06
2019-05-09T12:16:39.192Z,99032.23
2019-05-09T12:19:08.555Z,99033.08
2019-05-09T12:21:46.492Z,99036.85
2019-05-09T12:24:09.229Z,99041.11
2019-05-09T12:26:39.248Z,99040.84
2019-05-09T12:29:08.894Z,99034.33
2019-05-09T12:31:38.866Z,99041.13
2019-05-09T12:34:09.107Z,99042.27
2019-05-09T12:36:39.847Z,99041.20
2019-05-09T12:39:09.456Z,99045.67
2019-05-09T12:41:38.792Z,99044.58
2019-05-09T12:44:08.807Z,99045.20
2019-05-09T12:46:39.337Z,99051.45
2019-05-09T12:49:10.008Z,99062.33
2019-05-09T12:54:27.959Z,99059.19
2019-05-09T12:56:59.153Z,99057.31
2019-05-09T12:59:28.697Z,99059.53
2019-05-09T13:01:58.271Z,99069.16
2019-05-09T13:04:28.207Z,99075.45
2019-05-09T13:06:58.684Z,99082.80
2019-05-09T13:09:28.701Z,99084.18
2019-05-09T13:11:58.107Z,99082.45
2019-05-09T13:14:28.567Z,99092.22
2019-05-09T13:17:14.806Z,99094.17
2019-05-09T13:19:48.021Z,99105.03
2019-05-09T13:22:18.477Z,99100.79
2019-05-09T13:24:47.951Z,99107.53
2019-05-09T13:27:18.983Z,99099.05
2019-05-09T13:29:49.255Z,99104.63
2019-05-09T13:32:18.983Z,99107.59
2019-05-09T13:34:48.805Z,99112.23
2019-05-09T13:37:18.920Z,99110.09
2019-05-09T13:39:48.393Z,99116.44
2019-05-09T13:42:19.648Z,99120.62
2019-05-09T13:44:48.785Z,99122.36
2019-05-09T13:47:18.157Z,99124.79
2019-05-09T13:49:48.440Z,99129.61
2019-05-09T13:52:18.150Z,99130.36
2019-05-09T13:54:48.228Z,99129.28
2019-05-09T13:57:18.799Z,99127.80
2019-05-09T13:59:48.794Z,99139.12
2019-05-09T14:02:18.942Z,99137.52
2019-05-09T14:04:48.859Z,99137.42
2019-05-09T14:07:19.361Z,99134.00
2019-05-09T14:09:48.871Z,99136.62
2019-05-09T14:12:18.220Z,99141.13
2019-05-09T14:14:47.618Z,99147.88
2019-05-09T14:17:19.111Z,99151.27
2019-05-09T14:19:51.186Z,99152.38
2019-05-09T14:22:20.100Z,99158.80
2019-05-09T14:24:50.512Z,99145.84
2019-05-09T14:27:20.832Z,99152.20
2019-05-09T14:29:50.180Z,99153.56
2019-05-09T14:32:19.537Z,99143.84
2019-05-09T14:34:48.904Z,99145.88
2019-05-09T14:37:18.290Z,99146.97
2019-05-09T14:39:57.768Z,99149.34
2019-05-09T14:42:19.013Z,99154.70
2019-05-09T14:44:49.390Z,99158.17
2019-05-09T14:47:18.754Z,99156.14
2019-05-09T14:49:49.822Z,99157.13
2019-05-09T14:52:19.212Z,99159.23
2019-05-09T14:54:48.593Z,99160.77
2019-05-09T14:57:17.958Z,99160.86
2019-05-09T14:59:47.310Z,99165.41
2019-05-09T15:02:17.909Z,99167.98
2019-05-09T15:04:48.567Z,99165.55
2019-05-09T15:07:19.419Z,99163.34
2019-05-09T15:09:49.012Z,99161.16
2019-05-09T15:12:18.660Z,99168.56
2019-05-09T15:14:48.105Z,99163.58
2019-05-09T15:17:18.552Z,99166.81
2019-05-09T15:19:57.547Z,99173.81
2019-05-09T15:22:19.057Z,99173.37
2019-05-09T15:24:48.402Z,99179.06
2019-05-09T15:27:17.921Z,99179.47
2019-05-09T15:29:48.623Z,99174.48
2019-05-09T15:32:18.437Z,99176.54
2019-05-09T15:34:47.784Z,99178.34
2019-05-09T15:37:18.678Z,99181.93
2019-05-09T15:39:48.506Z,99179.84
2019-05-09T15:42:18.365Z,99180.50
2019-05-09T15:44:47.820Z,99189.94
2019-05-09T15:47:24.546Z,99193.98
2019-05-09T15:49:53.905Z,99199.34
2019-05-09T15:52:23.272Z,99197.17
2019-05-09T15:54:52.642Z,99189.33
2019-05-09T15:57:22.016Z,99200.52
2019-05-09T15:59:51.477Z,99198.95
2019-05-09T16:02:20.809Z,99201.13
2019-05-09T16:04:50.183Z,99203.02
2019-05-09T16:07:19.522Z,99207.76
2019-05-09T16:09:48.896Z,99217.48
2019-05-09T16:12:18.588Z,99218.02
2019-05-09T16:14:48.722Z,99220.86
2019-05-09T16:17:19.150Z,99219.05
2019-05-09T16:19:49.691Z,99223.50
2019-05-09T16:22:19.240Z,99219.62
2019-05-09T16:24:48.776Z,99225.67
2019-05-09T16:27:18.080Z,99225.19
2019-05-09T16:29:48.592Z,99229.06
2019-05-09T16:32:19.049Z,99224.07
2019-05-09T16:34:48.407Z,99217.08
2019-05-09T16:37:17.796Z,99215.47
2019-05-09T16:39:47.725Z,99218.20
2019-05-09T16:42:17.113Z,99219.98
2019-05-09T16:44:48.115Z,99219.30
2019-05-09T16:47:21.857Z,99219.09
2019-05-09T16:49:48.587Z,99221.81
2019-05-09T16:52:18.064Z,99225.03
2019-05-09T16:54:50.303Z,99223.80
2019-05-09T16:57:19.608Z,99225.44
2019-05-09T16:59:48.956Z,99229.31
2019-05-09T17:02:24.503Z,99230.46
2019-05-09T17:04:49.415Z,99232.17
2019-05-09T17:07:18.780Z,99236.89
2019-05-09T17:09:48.577Z,99237.16
2019-05-09T17:12:18.624Z,99240.92
2019-05-09T17:14:48.118Z,99244.11
2019-05-09T17:17:17.960Z,99250.30
2019-05-09T17:19:48.052Z,99261.69
2019-05-09T17:22:19.296Z,99261.66
2019-05-09T17:24:49.312Z,99263.33
2019-05-09T17:27:19.021Z,99267.58
2019-05-09T17:29:48.488Z,99262.88
2019-05-09T17:32:18.411Z,99266.08
2019-05-09T17:34:47.771Z,99264.38
2019-05-09T17:37:17.715Z,99268.23
2019-05-09T17:39:48.307Z,99270.41
2019-05-09T17:42:18.312Z,99268.23
2019-05-09T17:44:49.039Z,99271.80
2019-05-09T17:47:19.366Z,99278.39
2019-05-09T17:49:48.714Z,99292.63
2019-05-09T17:52:18.388Z,99287.44
2019-05-09T17:54:48.552Z,99299.86
2019-05-09T17:57:18.837Z,99321.41
2019-05-09T17:59:48.977Z,99339.59
2019-05-09T18:02:18.425Z,99370.75
2019-05-09T18:04:48.184Z,99392.14
2019-05-09T18:07:18.558Z,99391.55
2019-05-09T18:09:48.561Z,99407.88
2019-05-09T18:12:19.030Z,99411.27
2019-05-09T18:14:49.478Z,99417.55
2019-05-09T18:17:18.915Z,99427.56
2019-05-09T18:19:48.297Z,99422.36
2019-05-09T18:22:18.617Z,99431.39
2019-05-09T18:24:48.344Z,99435.67
2019-05-09T18:27:18.854Z,99444.98
2019-05-09T18:29:48.309Z,99448.17
2019-05-09T18:32:19.314Z,99446.03
2019-05-09T18:34:48.732Z,99459.19
2019-05-09T18:37:18.105Z,99455.92
2019-05-09T18:39:48.452Z,99451.72
2019-05-09T18:42:17.999Z,99454.03
2019-05-09T18:44:47.719Z,99457.26
2019-05-09T18:47:18.511Z,99466.35
2019-05-09T18:49:47.909Z,99466.35
2019-05-09T18:52:17.264Z,99467.78
2019-05-09T18:54:47.425Z,99473.53
2019-05-09T18:57:18.264Z,99477.45
2019-05-09T18:59:47.633Z,99477.45
2019-05-09T19:02:17.100Z,99481.77
2019-05-09T19:04:46.461Z,99481.77
2019-05-09T19:07:22.590Z,99489.98
2019-05-09T19:09:48.723Z,99486.45
2019-05-09T19:12:18.090Z,99485.58
2019-05-09T19:14:48.324Z,99480.86
2019-05-09T19:17:19.348Z,99479.28
2019-05-09T19:19:55.907Z,99475.08
2019-05-09T19:22:25.285Z,99490.45
2019-05-09T19:24:54.666Z,99493.63
2019-05-09T19:27:24.038Z,99507.22
2019-05-09T19:29:53.428Z,99501.23
2019-05-09T19:32:23.916Z,99502.15
2019-05-09T19:34:53.322Z,99504.05
2019-05-09T19:37:22.711Z,99510.11
2019-05-09T19:39:52.081Z,99512.73
2019-05-09T19:42:21.471Z,99514.95
2019-05-09T19:44:50.880Z,99525.45
2019-05-09T19:47:20.265Z,99525.84
2019-05-09T19:49:49.631Z,99525.45
2019-05-09T19:52:19.014Z,99529.84
2019-05-09T19:54:48.389Z,99532.89
2019-05-09T19:57:17.787Z,99535.63
2019-05-09T19:59:47.126Z,99539.55
2019-05-09T20:02:16.482Z,99541.80
2019-05-09T20:04:45.897Z,99538.54
2019-05-09T20:07:15.239Z,99551.08
2019-05-09T20:09:46.292Z,99551.08
2019-05-09T20:12:17.298Z,99549.12
2019-05-09T20:14:48.290Z,99558.45
2019-05-09T20:17:17.624Z,99560.81
2019-05-09T20:19:46.997Z,99554.23
2019-05-09T20:22:16.356Z,99554.23
2019-05-09T20:24:45.732Z,99565.19
2019-05-09T20:27:15.083Z,99573.31
2019-05-09T20:29:44.453Z,99573.31
2019-05-09T20:32:13.805Z,99578.14
2019-05-09T20:34:43.157Z,99577.53
2019-05-09T20:37:12.533Z,99587.70
2019-05-09T20:39:42.102Z,99586.22
2019-05-09T20:42:11.627Z,99591.27
2019-05-09T20:44:41.186Z,99579.58
2019-05-09T20:47:10.733Z,99591.63
2019-05-09T20:49:40.290Z,99592.94
2019-05-09T20:52:09.845Z,99595.30
2019-05-09T20:54:39.420Z,99597.61
2019-05-09T20:57:08.973Z,99598.29
2019-05-09T20:59:38.516Z,99610.69
2019-05-09T21:02:08.057Z,99612.20
2019-05-09T21:04:37.600Z,99609.76
2019-05-09T21:07:07.225Z,99620.41
2019-05-09T21:09:36.791Z,99624.86
2019-05-09T21:12:06.370Z,99622.78
2019-05-09T21:14:35.905Z,99626.66
2019-05-09T21:17:06.561Z,99637.05
2019-05-09T21:19:36.098Z,99625.83
2019-05-09T21:22:05.677Z,99631.55
2019-05-09T21:24:35.212Z,99636.88
2019-05-09T21:27:04.773Z,99636.06
2019-05-09T21:29:35.073Z,99635.27
2019-05-09T21:32:04.657Z,99642.32
2019-05-09T21:37:21.832Z,99642.48
2019-05-09T21:39:51.186Z,99643.41
2019-05-09T21:42:20.562Z,99644.31
2019-05-09T21:44:49.943Z,99650.78
2019-05-09T21:47:19.333Z,99649.78
2019-05-09T21:49:48.696Z,99654.91
2019-05-09T21:52:18.079Z,99654.84
2019-05-09T21:54:47.419Z,99656.09
2019-05-09T21:57:16.828Z,99659.67
2019-05-09T21:59:46.191Z,99665.76
2019-05-09T22:02:15.906Z,99669.23
2019-05-09T22:04:45.442Z,99668.80
2019-05-09T22:07:14.966Z,99667.53
2019-05-09T22:09:44.346Z,99664.11
2019-05-09T22:12:13.800Z,99668.99
2019-05-09T22:14:43.156Z,99666.94
2019-05-09T22:17:14.157Z,99671.45
2019-05-09T22:19:43.665Z,99673.72
2019-05-09T22:22:13.099Z,99679.40
2019-05-09T22:24:42.450Z,99680.73
2019-05-09T22:27:11.850Z,99683.87
2019-05-09T22:29:41.189Z,99687.91
2019-05-09T22:32:10.542Z,99693.73
2019-05-09T22:34:39.900Z,99699.94
2019-05-09T22:37:09.281Z,99702.70
2019-05-09T22:39:38.653Z,99703.70
2019-05-09T22:42:08.067Z,99703.86
2019-05-09T22:44:37.436Z,99707.83
2019-05-09T22:47:06.811Z,99709.23
2019-05-09T22:49:37.193Z,99705.91
2019-05-09T22:52:06.573Z,99706.83
2019-05-09T22:54:35.918Z,99702.67
2019-05-09T22:57:05.279Z,99704.92
2019-05-09T22:59:34.661Z,99714.60
2019-05-09T23:02:07.046Z,99717.64
2019-05-09T23:04:35.093Z,99714.92
2019-05-09T23:07:04.613Z,99719.52
2019-05-09T23:09:33.983Z,99715.84
2019-05-09T23:12:03.354Z,99713.10
2019-05-09T23:14:32.707Z,99718.13
2019-05-09T23:17:02.158Z,99718.44
2019-05-09T23:19:31.525Z,99717.66
2019-05-09T23:22:00.888Z,99712.03
2019-05-09T23:24:34.833Z,99719.80
2019-05-09T23:27:04.357Z,99709.71
2019-05-09T23:29:33.710Z,99711.02
2019-05-09T23:32:16.560Z,99717.52
2019-05-09T23:34:45.904Z,99715.31
2019-05-09T23:37:15.308Z,99712.18
2019-05-09T23:39:46.323Z,99715.58
2019-05-09T23:42:15.695Z,99707.28
2019-05-09T23:44:45.040Z,99707.75
2019-05-09T23:47:14.385Z,99706.38
2019-05-09T23:49:43.727Z,99705.05
2019-05-09T23:52:13.067Z,99709.77
2019-05-09T23:55:00.228Z,99711.95
2019-05-09T23:57:47.435Z,99706.67
